createdAt,value
2019-05-22T00:01:29.818Z,16.97
2019-05-22T00:04:20.773Z,16.10
2019-05-22T00:06:55.779Z,17.20
2019-05-22T00:09:38.967Z,17.47
2019-05-22T00:12:21.504Z,17.63
2019-05-22T00:14:56.817Z,17.47
2019-05-22T00:17:32.378Z,16.70
2019-05-22T00:20:06.808Z,18.00
2019-05-22T00:22:39.330Z,17.97
2019-05-22T00:25:14.059Z,17.90
2019-05-22T00:27:47.558Z,17.50
2019-05-22T00:30:23.553Z,18.33
2019-05-22T00:32:56.658Z,16.47
2019-05-22T00:35:31.840Z,17.03
2019-05-22T00:38:07.727Z,18.10
2019-05-22T00:40:49.128Z,16.47
2019-05-22T00:43:31.437Z,15.30
2019-05-22T00:46:08.207Z,16.70
2019-05-22T00:48:41.929Z,17.07
2019-05-22T00:51:30.129Z,17.43
2019-05-22T00:54:24.026Z,16.07
2019-05-22T00:57:04.716Z,16.10
2019-05-22T00:59:45.766Z,16.63
2019-05-22T01:02:19.297Z,15.90
2019-05-22T01:04:52.206Z,15.10
2019-05-22T01:07:30.763Z,15.03
2019-05-22T01:10:04.473Z,14.30
2019-05-22T01:12:43.157Z,16.10
2019-05-22T01:15:19.708Z,13.87
2019-05-22T01:17:51.265Z,14.17
2019-05-22T01:20:26.061Z,13.73
2019-05-22T01:22:59.402Z,13.87
2019-05-22T01:25:34.550Z,14.97
2019-05-22T01:28:10.765Z,13.43
2019-05-22T01:30:51.366Z,12.97
2019-05-22T01:33:43.683Z,14.47
2019-05-22T01:36:36.033Z,12.67
2019-05-22T01:39:26.397Z,16.07
2019-05-22T01:42:01.606Z,14.13
2019-05-22T01:44:34.872Z,13.70
2019-05-22T01:47:17.862Z,13.67
2019-05-22T01:49:54.642Z,14.37
2019-05-22T01:52:27.935Z,13.83
2019-05-22T01:55:03.644Z,14.20
2019-05-22T01:57:35.968Z,12.77
2019-05-22T02:00:12.878Z,13.27
2019-05-22T02:02:47.536Z,13.47
2019-05-22T02:05:19.228Z,13.63
2019-05-22T02:07:50.964Z,12.90
2019-05-22T02:10:28.346Z,13.23
2019-05-22T02:13:05.841Z,12.63
2019-05-22T02:15:37.478Z,12.40
2019-05-22T02:18:13.521Z,12.10
2019-05-22T02:20:47.175Z,12.43
2019-05-22T02:23:19.310Z,13.37
2019-05-22T02:25:51.273Z,13.40
2019-05-22T02:28:23.044Z,12.97
2019-05-22T02:30:55.716Z,12.57
2019-05-22T02:33:27.253Z,12.10
2019-05-22T02:36:00.515Z,13.00
2019-05-22T02:38:38.598Z,12.77
2019-05-22T02:41:14.363Z,13.07
2019-05-22T02:43:45.787Z,11.77
2019-05-22T02:46:18.767Z,12.93
2019-05-22T02:48:51.730Z,12.60
2019-05-22T02:51:28.867Z,13.33
2019-05-22T02:54:02.154Z,11.20
2019-05-22T02:56:36.255Z,11.87
2019-05-22T02:59:10.387Z,12.17
2019-05-22T03:01:43.010Z,11.63
2019-05-22T03:04:14.467Z,12.97
2019-05-22T03:06:46.078Z,12.57
2019-05-22T03:09:23.821Z,12.70
2019-05-22T03:12:07.087Z,13.20
2019-05-22T03:14:40.122Z,14.80
2019-05-22T03:17:31.752Z,15.43
2019-05-22T03:20:11.883Z,16.70
2019-05-22T03:23:40.854Z,18.27
2019-05-22T03:26:13.755Z,18.73
2019-05-22T03:28:46.018Z,19.33
2019-05-22T03:31:24.564Z,19.47
2019-05-22T03:33:56.559Z,19.17
2019-05-22T03:36:29.144Z,20.33
2019-05-22T03:39:00.316Z,19.60
2019-05-22T03:41:32.659Z,19.70
2019-05-22T03:44:05.673Z,19.97
2019-05-22T03:46:42.649Z,18.67
2019-05-22T03:49:29.137Z,19.10
2019-05-22T03:51:54.134Z,19.00
2019-05-22T03:54:27.101Z,18.80
2019-05-22T03:56:58.885Z,17.73
2019-05-22T03:59:31.032Z,18.40
2019-05-22T04:02:04.024Z,18.33
2019-05-22T04:04:39.596Z,17.80
2019-05-22T04:07:16.725Z,18.53
2019-05-22T04:09:49.759Z,17.07
2019-05-22T04:12:26.361Z,20.07
2019-05-22T04:14:58.628Z,19.83
2019-05-22T04:17:31.236Z,18.47
2019-05-22T04:20:02.402Z,19.10
2019-05-22T04:22:33.566Z,18.60
2019-05-22T04:25:04.991Z,18.97
2019-05-22T04:27:37.288Z,18.93
2019-05-22T04:30:12.093Z,18.40
2019-05-22T04:32:48.330Z,19.40
2019-05-22T04:35:20.952Z,18.50
2019-05-22T04:37:54.253Z,20.13
2019-05-22T04:40:57.004Z,17.73
2019-05-22T04:43:35.859Z,17.47
2019-05-22T04:46:11.844Z,18.27
2019-05-22T04:48:46.168Z,18.20
2019-05-22T04:51:27.146Z,17.40
2019-05-22T04:53:59.121Z,17.80
2019-05-22T04:56:30.528Z,18.87
2019-05-22T04:59:03.044Z,17.30
2019-05-22T05:01:34.295Z,18.10
2019-05-22T05:04:08.777Z,16.23
2019-05-22T05:06:40.396Z,17.83
2019-05-22T05:09:13.687Z,15.10
2019-05-22T05:11:45.947Z,17.57
2019-05-22T05:14:17.270Z,18.13
2019-05-22T05:16:49.143Z,18.57
2019-05-22T05:19:20.605Z,16.87
2019-05-22T05:21:51.644Z,17.30
2019-05-22T05:24:24.073Z,18.23
2019-05-22T05:26:55.890Z,18.13
2019-05-22T05:29:28.877Z,17.40
2019-05-22T05:32:01.589Z,16.30
2019-05-22T05:34:59.460Z,15.87
2019-05-22T05:37:35.394Z,17.67
2019-05-22T05:40:29.846Z,17.07
2019-05-22T05:43:02.177Z,17.37
2019-05-22T05:45:34.321Z,16.97
2019-05-22T05:48:08.457Z,15.97
2019-05-22T05:50:41.435Z,16.10
2019-05-22T05:53:19.395Z,16.33
2019-05-22T05:56:19.768Z,17.27
2019-05-22T05:58:50.963Z,16.23
2019-05-22T06:01:27.549Z,16.03
2019-05-22T06:04:13.437Z,14.27
2019-05-22T06:07:26.593Z,16.13
2019-05-22T06:10:32.034Z,16.30
2019-05-22T06:13:04.575Z,15.17
2019-05-22T06:16:12.241Z,16.43
2019-05-22T06:18:50.943Z,16.37
2019-05-22T06:21:23.636Z,14.37
2019-05-22T06:24:28.148Z,14.03
2019-05-22T06:27:32.414Z,14.67
2019-05-22T06:30:10.163Z,13.63
2019-05-22T06:33:31.456Z,13.07
2019-05-22T06:36:06.300Z,13.90
2019-05-22T06:39:07.818Z,13.00
2019-05-22T06:41:39.720Z,11.27
2019-05-22T06:44:44.088Z,11.77
2019-05-22T06:47:28.949Z,10.80
2019-05-22T06:50:10.862Z,10.27
2019-05-22T06:52:41.767Z,11.57
2019-05-22T06:55:15.394Z,10.60
2019-05-22T06:57:46.418Z,9.80
2019-05-22T07:00:21.883Z,9.67
2019-05-22T07:02:54.671Z,9.10
2019-05-22T07:05:30.000Z,8.20
2019-05-22T07:08:04.096Z,8.93
2019-05-22T07:10:43.651Z,9.00
2019-05-22T07:13:22.139Z,8.70
2019-05-22T07:15:54.271Z,8.13
2019-05-22T07:18:31.478Z,7.20
2019-05-22T07:21:03.985Z,7.87
2019-05-22T07:23:37.724Z,7.70
2019-05-22T07:26:11.145Z,7.93
2019-05-22T07:28:45.552Z,7.60
2019-05-22T07:31:19.141Z,7.67
2019-05-22T07:33:53.451Z,7.40
2019-05-22T07:36:28.009Z,7.40
2019-05-22T07:39:01.950Z,7.97
2019-05-22T07:41:33.438Z,6.97
2019-05-22T07:44:07.667Z,7.30
2019-05-22T07:46:44.096Z,6.57
2019-05-22T07:49:18.413Z,7.03
2019-05-22T07:52:00.606Z,6.83
2019-05-22T07:54:26.736Z,6.90
2019-05-22T07:56:58.318Z,6.63
2019-05-22T07:59:49.205Z,7.30
2019-05-22T08:02:23.331Z,6.53
2019-05-22T08:04:56.780Z,7.40
2019-05-22T08:07:35.283Z,7.47
2019-05-22T08:10:25.926Z,6.57
2019-05-22T08:13:00.882Z,7.30
2019-05-22T08:15:47.732Z,6.53
2019-05-22T08:18:22.410Z,6.33
2019-05-22T08:20:56.835Z,6.70
2019-05-22T08:23:30.748Z,6.80
2019-05-22T08:26:02.183Z,6.00
2019-05-22T08:28:38.837Z,6.20
2019-05-22T08:31:13.613Z,6.33
2019-05-22T08:33:52.187Z,6.90
2019-05-22T08:36:26.980Z,6.47
2019-05-22T08:39:04.167Z,7.43
2019-05-22T08:41:41.084Z,7.57
2019-05-22T08:44:17.534Z,7.77
2019-05-22T08:46:48.562Z,7.20
2019-05-22T08:49:24.477Z,7.90
2019-05-22T08:52:00.231Z,7.43
2019-05-22T08:54:48.041Z,8.33
2019-05-22T08:57:22.664Z,7.97
2019-05-22T08:59:55.058Z,6.90
2019-05-22T09:02:33.738Z,6.70
2019-05-22T09:05:06.847Z,7.03
2019-05-22T09:07:41.952Z,8.40
2019-05-22T09:10:16.842Z,9.00
2019-05-22T09:12:52.120Z,8.43
2019-05-22T09:15:25.605Z,9.27
2019-05-22T09:17:58.643Z,9.93
2019-05-22T09:20:46.424Z,9.70
2019-05-22T09:23:04.701Z,9.23
2019-05-22T09:25:39.282Z,9.57
2019-05-22T09:28:10.502Z,9.23
2019-05-22T09:30:58.631Z,8.93
2019-05-22T09:33:37.047Z,8.87
2019-05-22T09:36:11.526Z,8.97
2019-05-22T09:38:47.029Z,8.63
2019-05-22T09:41:27.201Z,9.20
2019-05-22T09:43:58.378Z,10.03
2019-05-22T09:46:36.772Z,8.80
2019-05-22T09:49:08.461Z,10.10
2019-05-22T09:51:42.542Z,10.83
2019-05-22T09:54:14.026Z,9.90
2019-05-22T09:56:45.041Z,9.87
2019-05-22T09:59:16.169Z,9.20
2019-05-22T10:01:47.297Z,8.70
2019-05-22T10:04:24.520Z,9.77
2019-05-22T10:06:59.134Z,8.20
2019-05-22T10:09:31.200Z,8.97
2019-05-22T10:12:03.090Z,8.83
2019-05-22T10:14:37.797Z,9.57
2019-05-22T10:17:12.226Z,10.23
2019-05-22T10:19:43.507Z,9.53
2019-05-22T10:22:15.294Z,9.60
2019-05-22T10:24:50.064Z,9.87
2019-05-22T10:27:19.857Z,9.07
2019-05-22T10:29:54.718Z,9.57
2019-05-22T10:32:31.914Z,7.53
2019-05-22T10:35:04.322Z,10.93
2019-05-22T10:37:40.316Z,7.77
2019-05-22T10:40:13.760Z,10.20
2019-05-22T10:42:53.182Z,10.10
2019-05-22T10:45:24.627Z,10.30
2019-05-22T10:47:59.913Z,10.60
2019-05-22T10:50:40.286Z,11.47
2019-05-22T10:53:33.091Z,11.43
2019-05-22T10:55:55.970Z,10.03
2019-05-22T10:58:28.352Z,10.73
2019-05-22T11:01:03.431Z,10.30
2019-05-22T11:03:53.817Z,9.53
2019-05-22T11:06:27.789Z,10.47
2019-05-22T11:08:59.480Z,10.87
2019-05-22T11:11:34.566Z,10.17
2019-05-22T11:14:09.793Z,11.10
2019-05-22T11:16:41.986Z,11.53
2019-05-22T11:19:17.949Z,10.63
2019-05-22T11:21:52.810Z,10.50
2019-05-22T11:24:24.480Z,10.63
2019-05-22T11:27:07.276Z,10.27
2019-05-22T11:29:38.822Z,10.80
2019-05-22T11:32:12.700Z,9.40
2019-05-22T11:34:44.026Z,9.20
2019-05-22T11:37:23.497Z,10.37
2019-05-22T11:39:59.830Z,10.87
2019-05-22T11:43:09.696Z,9.90
2019-05-22T11:46:49.743Z,10.90
2019-05-22T11:49:26.226Z,10.87
2019-05-22T11:51:59.911Z,11.00
2019-05-22T11:54:45.307Z,11.07
2019-05-22T11:57:18.102Z,11.33
2019-05-22T11:59:50.505Z,12.60
2019-05-22T12:02:28.739Z,10.90
2019-05-22T12:05:11.811Z,12.53
2019-05-22T12:07:56.300Z,11.00
2019-05-22T12:10:29.441Z,11.40
2019-05-22T12:13:01.606Z,11.10
2019-05-22T12:15:34.843Z,11.67
2019-05-22T12:18:07.203Z,11.13
2019-05-22T12:20:39.685Z,11.07
2019-05-22T12:23:15.143Z,11.20
2019-05-22T12:25:51.518Z,10.80
2019-05-22T12:28:22.563Z,11.03
2019-05-22T12:30:57.649Z,11.50
2019-05-22T12:33:34.358Z,10.77
2019-05-22T12:36:09.945Z,10.00
2019-05-22T12:38:42.709Z,11.37
2019-05-22T12:41:15.547Z,11.43
2019-05-22T12:43:50.389Z,11.50
2019-05-22T12:46:26.827Z,11.50
2019-05-22T12:48:59.274Z,10.50
2019-05-22T12:51:37.423Z,9.87
2019-05-22T12:54:11.948Z,9.30
2019-05-22T12:57:00.303Z,10.87
2019-05-22T12:59:35.647Z,10.17
2019-05-22T13:02:15.467Z,10.13
2019-05-22T13:04:56.227Z,9.17
2019-05-22T13:07:38.508Z,10.63
2019-05-22T13:10:19.548Z,10.37
2019-05-22T13:12:56.203Z,12.00
2019-05-22T13:15:32.938Z,11.10
2019-05-22T13:18:08.151Z,11.70
2019-05-22T13:20:49.643Z,11.10
2019-05-22T13:23:31.477Z,11.57
2019-05-22T13:26:04.781Z,11.40
2019-05-22T13:28:38.801Z,11.43
2019-05-22T13:31:10.304Z,10.83
2019-05-22T13:33:44.578Z,10.17
2019-05-22T13:36:21.778Z,9.80
2019-05-22T13:38:57.369Z,9.07
2019-05-22T13:41:38.764Z,9.83
2019-05-22T13:44:16.559Z,8.40
2019-05-22T13:46:52.540Z,9.60
2019-05-22T13:49:38.064Z,9.13
2019-05-22T13:52:16.442Z,8.47
2019-05-22T13:54:51.773Z,8.00
2019-05-22T13:57:25.463Z,7.87
2019-05-22T13:59:56.980Z,9.03
2019-05-22T14:02:30.233Z,9.03
2019-05-22T14:05:02.429Z,8.97
2019-05-22T14:07:37.023Z,10.53
2019-05-22T14:10:15.441Z,10.33
2019-05-22T14:12:48.049Z,10.60
2019-05-22T14:15:48.825Z,10.13
2019-05-22T14:18:09.659Z,10.10
2019-05-22T14:20:49.788Z,9.53
2019-05-22T14:23:21.328Z,9.63
2019-05-22T14:25:55.239Z,9.07
2019-05-22T14:28:31.452Z,8.10
2019-05-22T14:31:13.445Z,8.10
2019-05-22T14:33:44.260Z,7.47
2019-05-22T14:36:19.180Z,7.73
2019-05-22T14:38:58.438Z,6.80
2019-05-22T14:41:35.976Z,7.47
2019-05-22T14:44:12.688Z,7.73
2019-05-22T14:46:50.072Z,6.50
2019-05-22T14:49:24.462Z,7.10
2019-05-22T14:51:56.352Z,6.40
2019-05-22T14:54:31.767Z,7.23
2019-05-22T14:57:12.547Z,7.30
2019-05-22T14:59:53.359Z,8.97
2019-05-22T15:02:25.141Z,10.03
2019-05-22T15:05:02.656Z,9.13
2019-05-22T15:07:41.012Z,10.40
2019-05-22T15:10:20.366Z,9.33
2019-05-22T15:12:57.398Z,10.00
2019-05-22T15:15:31.802Z,10.30
2019-05-22T15:18:07.131Z,9.83
2019-05-22T15:20:54.912Z,9.03
2019-05-22T15:23:30.194Z,8.77
2019-05-22T15:26:04.848Z,8.80
2019-05-22T15:28:49.517Z,9.53
2019-05-22T15:31:29.497Z,10.20
2019-05-22T15:34:09.356Z,9.43
2019-05-22T15:36:45.357Z,8.77
2019-05-22T15:39:21.855Z,9.13
2019-05-22T15:41:56.676Z,8.30
2019-05-22T15:44:40.298Z,7.90
2019-05-22T15:50:44.190Z,7.90
2019-05-22T15:53:26.452Z,7.73
2019-05-22T15:56:09.573Z,7.10
2019-05-22T15:58:50.207Z,7.37
2019-05-22T16:01:30.821Z,7.00
2019-05-22T16:04:07.117Z,6.80
2019-05-22T16:06:41.098Z,6.50
2019-05-22T16:09:20.931Z,6.13
2019-05-22T16:11:57.010Z,5.90
2019-05-22T16:14:31.640Z,6.60
2019-05-22T16:17:09.080Z,5.90
2019-05-22T16:19:47.052Z,5.30
2019-05-22T16:22:29.108Z,5.37
2019-05-22T16:25:06.164Z,5.80
2019-05-22T16:27:38.774Z,5.37
2019-05-22T16:30:18.726Z,5.40
2019-05-22T16:32:51.131Z,5.50
2019-05-22T16:35:30.631Z,4.03
2019-05-22T16:38:16.373Z,4.90
2019-05-22T16:40:52.403Z,4.43
2019-05-22T16:43:47.419Z,4.00
2019-05-22T16:46:10.181Z,3.83
2019-05-22T16:48:45.036Z,4.20
2019-05-22T16:51:17.835Z,4.57
2019-05-22T16:54:00.801Z,4.23
2019-05-22T16:56:41.207Z,4.40
2019-05-22T16:59:15.157Z,4.63
2019-05-22T17:01:58.654Z,4.40
2019-05-22T17:04:25.068Z,4.47
2019-05-22T17:06:59.000Z,4.73
2019-05-22T17:09:33.416Z,4.27
2019-05-22T17:12:10.183Z,4.63
2019-05-22T17:14:56.883Z,5.13
2019-05-22T17:17:31.022Z,4.67
2019-05-22T17:20:07.004Z,4.57
2019-05-22T17:22:48.346Z,5.13
2019-05-22T17:25:24.082Z,5.63
2019-05-22T17:27:55.935Z,6.13
2019-05-22T17:30:28.670Z,5.90
2019-05-22T17:33:02.470Z,7.80
2019-05-22T17:35:34.381Z,7.03
2019-05-22T17:38:10.236Z,7.30
2019-05-22T17:40:42.702Z,7.00
2019-05-22T17:43:16.066Z,6.73
2019-05-22T17:45:51.852Z,6.97
2019-05-22T17:48:26.945Z,7.50
2019-05-22T17:51:03.319Z,6.70
2019-05-22T17:53:37.879Z,7.67
2019-05-22T17:56:11.882Z,7.27
2019-05-22T17:58:46.547Z,6.87
2019-05-22T18:01:26.394Z,7.13
2019-05-22T18:04:06.206Z,7.63
2019-05-22T18:06:44.588Z,7.20
2019-05-22T18:09:20.993Z,7.10
2019-05-22T18:11:58.826Z,6.70
2019-05-22T18:14:38.658Z,6.73
2019-05-22T18:17:39.246Z,6.10
2019-05-22T18:20:24.335Z,7.60
2019-05-22T18:23:08.940Z,6.57
2019-05-22T18:25:42.341Z,6.77
2019-05-22T18:28:21.597Z,6.27
2019-05-22T18:30:57.081Z,6.57
2019-05-22T18:33:36.161Z,6.83
2019-05-22T18:36:11.125Z,6.80
2019-05-22T18:38:48.426Z,7.23
2019-05-22T18:41:20.023Z,7.30
2019-05-22T18:43:59.247Z,6.53
2019-05-22T18:46:34.090Z,6.40
2019-05-22T18:49:20.458Z,7.30
2019-05-22T18:51:56.338Z,6.90
2019-05-22T18:54:35.577Z,7.17
2019-05-22T18:57:11.622Z,6.67
2019-05-22T19:00:03.803Z,7.93
2019-05-22T19:02:38.298Z,6.90
2019-05-22T19:05:11.806Z,7.73
2019-05-22T19:07:50.010Z,7.00
2019-05-22T19:10:27.179Z,8.00
2019-05-22T19:13:05.141Z,8.00
2019-05-22T19:15:48.728Z,7.70
2019-05-22T19:18:16.849Z,7.00
2019-05-22T19:20:48.279Z,8.20
2019-05-22T19:23:22.100Z,7.17
2019-05-22T19:25:54.585Z,7.67
2019-05-22T19:28:42.821Z,7.27
2019-05-22T19:31:03.135Z,6.83
2019-05-22T19:33:37.988Z,7.40
2019-05-22T19:36:13.909Z,8.23
2019-05-22T19:38:45.978Z,7.37
2019-05-22T19:41:19.289Z,7.47
2019-05-22T19:44:00.108Z,7.73
2019-05-22T19:46:32.704Z,7.33
2019-05-22T19:49:05.142Z,8.10
2019-05-22T19:51:39.826Z,7.97
2019-05-22T19:54:20.781Z,8.43
2019-05-22T19:56:54.321Z,7.83
2019-05-22T19:59:25.463Z,7.03
2019-05-22T20:01:58.251Z,7.77
2019-05-22T20:04:36.666Z,8.53
2019-05-22T20:10:08.022Z,7.77
2019-05-22T20:12:50.747Z,7.93
2019-05-22T20:15:33.550Z,8.40
2019-05-22T20:18:13.270Z,7.53
2019-05-22T20:20:46.435Z,7.23
2019-05-22T20:23:34.524Z,7.73
2019-05-22T20:26:02.367Z,8.07
2019-05-22T20:28:45.867Z,7.53
2019-05-22T20:31:23.594Z,8.17
2019-05-22T20:34:04.332Z,7.63
2019-05-22T20:36:41.092Z,8.40
2019-05-22T20:39:16.457Z,7.50
2019-05-22T20:41:48.528Z,8.57
2019-05-22T20:44:27.197Z,7.27
2019-05-22T20:47:03.226Z,7.63
2019-05-22T20:49:35.693Z,8.03
2019-05-22T20:52:14.190Z,7.07
2019-05-22T20:54:49.166Z,6.63
2019-05-22T20:57:27.487Z,6.47
2019-05-22T21:00:10.542Z,6.43
2019-05-22T21:03:04.751Z,7.07
2019-05-22T21:05:38.739Z,6.07
2019-05-22T21:08:13.601Z,6.50
2019-05-22T21:10:47.769Z,7.47
2019-05-22T21:13:20.458Z,6.57
2019-05-22T21:16:06.844Z,6.37
2019-05-22T21:18:43.142Z,5.90
2019-05-22T21:21:25.251Z,6.03
2019-05-22T21:24:11.177Z,6.43
2019-05-22T21:26:42.852Z,6.37
2019-05-22T21:29:24.471Z,6.07
2019-05-22T21:32:04.371Z,5.90
2019-05-22T21:34:35.352Z,6.50
2019-05-22T21:37:10.075Z,5.70
2019-05-22T21:39:44.014Z,5.97
2019-05-22T21:42:16.821Z,6.37
2019-05-22T21:44:48.261Z,6.80
2019-05-22T21:47:27.899Z,6.40
2019-05-22T21:50:00.137Z,6.27
2019-05-22T21:52:32.279Z,6.67
2019-05-22T21:55:14.419Z,7.40
2019-05-22T21:57:50.371Z,6.77
2019-05-22T22:00:43.916Z,7.00
2019-05-22T22:03:19.264Z,6.73
2019-05-22T22:05:51.285Z,7.03
2019-05-22T22:08:26.769Z,6.57
2019-05-22T22:10:59.740Z,7.13
2019-05-22T22:13:38.295Z,6.17
2019-05-22T22:16:10.109Z,6.93
2019-05-22T22:18:41.757Z,7.43
2019-05-22T22:21:14.633Z,6.80
2019-05-22T22:23:53.862Z,6.27
2019-05-22T22:26:28.860Z,5.63
2019-05-22T22:29:01.311Z,5.83
2019-05-22T22:31:40.277Z,6.13
2019-05-22T22:34:27.360Z,5.73
2019-05-22T22:37:03.301Z,5.77
2019-05-22T22:39:45.023Z,5.97
2019-05-22T22:42:18.430Z,6.00
2019-05-22T22:44:54.523Z,5.47
2019-05-22T22:47:47.472Z,5.90
2019-05-22T22:50:22.414Z,5.37
2019-05-22T22:52:54.566Z,5.67
2019-05-22T22:55:32.811Z,5.70
2019-05-22T22:58:17.287Z,6.30
2019-05-22T23:00:49.067Z,5.77
2019-05-22T23:03:23.691Z,6.13
2019-05-22T23:06:04.104Z,6.30
2019-05-22T23:08:37.892Z,6.00
2019-05-22T23:11:10.406Z,6.70
2019-05-22T23:13:41.869Z,5.57
2019-05-22T23:16:13.352Z,5.87
2019-05-22T23:19:28.175Z,6.27
2019-05-22T23:21:58.830Z,6.07
2019-05-22T23:24:31.290Z,5.17
2019-05-22T23:27:03.822Z,6.77
2019-05-22T23:29:34.981Z,6.43
2019-05-22T23:32:14.943Z,5.23
2019-05-22T23:34:46.917Z,5.90
2019-05-22T23:37:21.310Z,5.27
2019-05-22T23:39:57.353Z,5.67
2019-05-22T23:42:33.005Z,5.57
2019-05-22T23:45:07.152Z,6.10
2019-05-22T23:48:05.827Z,5.60
2019-05-22T23:50:38.412Z,5.07
2019-05-22T23:53:12.826Z,6.60
2019-05-22T23:55:45.594Z,6.20
2019-05-22T23:58:20.423Z,6.43
